createdAt,value
2016-12-12T00:00:13.885Z,916.83
2016-12-12T00:00:43.606Z,916.81
2016-12-12T00:01:12.991Z,916.8
2016-12-12T00:01:41.648Z,916.81
2016-12-12T00:02:10.675Z,916.8
2016-12-12T00:02:39.054Z,916.83
2016-12-12T00:03:07.677Z,916.79
2016-12-12T00:03:36.960Z,916.85
2016-12-12T00:04:05.390Z,916.84
2016-12-12T00:04:34.701Z,916.83
2016-12-12T00:05:02.781Z,916.81
2016-12-12T00:05:31.747Z,916.83
2016-12-12T00:06:00.281Z,916.76
2016-12-12T00:06:28.723Z,916.82
2016-12-12T00:06:58.387Z,916.81
2016-12-12T00:07:26.765Z,916.86
2016-12-12T00:07:55.383Z,916.78
2016-12-12T00:08:23.633Z,916.73
2016-12-12T00:08:52.431Z,916.75
2016-12-12T00:09:20.477Z,916.73
2016-12-12T00:09:49.245Z,916.68
2016-12-12T00:10:18.160Z,916.78
2016-12-12T00:10:47.291Z,916.76
2016-12-12T00:11:16.034Z,916.66
2016-12-12T00:11:44.690Z,916.7
2016-12-12T00:12:13.809Z,916.7
2016-12-12T00:12:42.973Z,916.7
2016-12-12T00:13:11.054Z,916.63
2016-12-12T00:13:41.405Z,916.69
2016-12-12T00:14:09.544Z,916.7
2016-12-12T00:14:38.553Z,916.68
2016-12-12T00:15:08.025Z,916.65
2016-12-12T00:15:37.210Z,916.7
2016-12-12T00:16:06.479Z,916.71
2016-12-12T00:16:34.777Z,916.68
2016-12-12T00:17:02.922Z,916.69
2016-12-12T00:17:33.185Z,916.64
2016-12-12T00:18:01.605Z,916.67
2016-12-12T00:18:30.211Z,916.66
2016-12-12T00:18:59.179Z,916.68
2016-12-12T00:19:28.228Z,916.72
2016-12-12T00:19:56.601Z,916.68
2016-12-12T00:20:25.766Z,916.73
2016-12-12T00:20:54.788Z,916.74
2016-12-12T00:21:23.816Z,916.72
2016-12-12T00:21:52.745Z,916.69
2016-12-12T00:22:35.625Z,916.67
2016-12-12T00:23:04.029Z,916.68
2016-12-12T00:23:33.534Z,916.66
2016-12-12T00:24:01.784Z,916.64
2016-12-12T00:24:29.897Z,916.62
2016-12-12T00:24:58.082Z,916.6
2016-12-12T00:25:26.619Z,916.59
2016-12-12T00:25:56.186Z,916.53
2016-12-12T00:26:25.196Z,916.52
2016-12-12T00:26:54.416Z,916.52
2016-12-12T00:27:22.429Z,916.49
2016-12-12T00:27:50.774Z,916.48
2016-12-12T00:28:19.298Z,916.43
2016-12-12T00:28:48.378Z,916.44
2016-12-12T00:29:16.571Z,916.39
2016-12-12T00:29:45.219Z,916.42
2016-12-12T00:30:14.667Z,916.41
2016-12-12T00:30:43.965Z,916.4
2016-12-12T00:31:12.408Z,916.43
2016-12-12T00:31:40.764Z,916.47
2016-12-12T00:32:10.423Z,916.46
2016-12-12T00:32:39.895Z,916.49
2016-12-12T00:33:08.502Z,916.52
2016-12-12T00:33:37.295Z,916.51
2016-12-12T00:34:05.625Z,916.51
2016-12-12T00:34:34.016Z,916.51
2016-12-12T00:35:47.501Z,916.51
2016-12-12T00:36:15.865Z,916.49
2016-12-12T00:36:43.982Z,916.46
2016-12-12T00:37:12.809Z,916.46
2016-12-12T00:37:41.482Z,916.44
2016-12-12T00:38:11.292Z,916.39
2016-12-12T00:38:40.281Z,916.4
2016-12-12T00:39:09.753Z,916.39
2016-12-12T00:39:38.439Z,916.39
2016-12-12T00:40:06.663Z,916.41
2016-12-12T00:40:37.067Z,916.45
2016-12-12T00:41:05.296Z,916.44
2016-12-12T00:41:34.147Z,916.47
2016-12-12T00:42:02.469Z,916.54
2016-12-12T00:42:31.901Z,916.51
2016-12-12T00:43:01.544Z,916.56
2016-12-12T00:43:31.254Z,916.53
2016-12-12T00:43:59.825Z,916.52
2016-12-12T00:44:28.285Z,916.51
2016-12-12T00:44:57.053Z,916.52
2016-12-12T00:45:25.617Z,916.52
2016-12-12T00:45:53.726Z,916.45
2016-12-12T00:46:21.798Z,916.5
2016-12-12T00:46:50.422Z,916.46
2016-12-12T00:47:18.746Z,916.44
2016-12-12T00:47:48.069Z,916.47
2016-12-12T00:48:16.824Z,916.46
2016-12-12T00:48:45.609Z,916.46
2016-12-12T00:49:15.356Z,916.46
2016-12-12T00:49:43.817Z,916.42
2016-12-12T00:50:12.516Z,916.43
2016-12-12T00:50:41.342Z,916.44
2016-12-12T00:51:09.579Z,916.39
2016-12-12T00:51:38.477Z,916.4
2016-12-12T00:52:08.202Z,916.42
2016-12-12T00:52:37.230Z,916.39
2016-12-12T00:53:07.122Z,916.42
2016-12-12T00:53:35.344Z,916.39
2016-12-12T00:54:03.916Z,916.38
2016-12-12T00:54:33.018Z,916.39
2016-12-12T00:55:02.117Z,916.39
2016-12-12T00:55:30.277Z,916.42
2016-12-12T00:56:00.921Z,916.41
2016-12-12T00:56:30.048Z,916.39
2016-12-12T00:57:00.789Z,916.38
2016-12-12T00:57:30.127Z,916.4
2016-12-12T00:57:59.526Z,916.41
2016-12-12T00:58:28.328Z,916.41
2016-12-12T00:58:56.800Z,916.38
2016-12-12T00:59:25.444Z,916.39
2016-12-12T00:59:53.956Z,916.38
2016-12-12T01:00:22.069Z,916.41
2016-12-12T01:00:50.632Z,916.4
2016-12-12T01:01:19.142Z,916.37
2016-12-12T01:01:47.258Z,916.39
2016-12-12T01:02:16.616Z,916.36
2016-12-12T01:02:45.774Z,916.34
2016-12-12T01:03:14.412Z,916.36
2016-12-12T01:03:42.906Z,916.38
2016-12-12T01:04:12.167Z,916.35
2016-12-12T01:04:40.494Z,916.36
2016-12-12T01:05:09.163Z,916.34
2016-12-12T01:05:37.410Z,916.38
2016-12-12T01:06:05.744Z,916.33
2016-12-12T01:06:34.278Z,916.35
2016-12-12T01:07:02.513Z,916.32
2016-12-12T01:07:32.269Z,916.37
2016-12-12T01:08:01.135Z,916.34
2016-12-12T01:08:29.456Z,916.33
2016-12-12T01:08:58.241Z,916.38
2016-12-12T01:09:26.989Z,916.39
2016-12-12T01:09:56.306Z,916.36
2016-12-12T01:10:25.672Z,916.42
2016-12-12T01:11:09.436Z,916.41
2016-12-12T01:11:38.042Z,916.44
2016-12-12T01:12:07.842Z,916.42
2016-12-12T01:12:36.309Z,916.41
2016-12-12T01:13:05.453Z,916.36
2016-12-12T01:13:33.603Z,916.41
2016-12-12T01:14:01.636Z,916.42
2016-12-12T01:14:30.119Z,916.41
2016-12-12T01:14:58.219Z,916.41
2016-12-12T01:16:10.704Z,916.42
2016-12-12T01:16:39.477Z,916.42
2016-12-12T01:17:08.071Z,916.4
2016-12-12T01:17:37.246Z,916.4
2016-12-12T01:18:05.840Z,916.39
2016-12-12T01:18:48.564Z,916.4
2016-12-12T01:19:16.755Z,916.38
2016-12-12T01:19:45.953Z,916.34
2016-12-12T01:20:14.265Z,916.34
2016-12-12T01:20:43.264Z,916.35
2016-12-12T01:21:11.752Z,916.33
2016-12-12T01:21:39.815Z,916.3
2016-12-12T01:22:08.436Z,916.29
2016-12-12T01:22:38.110Z,916.26
2016-12-12T01:23:07.197Z,916.26
2016-12-12T01:23:35.716Z,916.26
2016-12-12T01:24:04.386Z,916.27
2016-12-12T01:24:34.146Z,916.3
2016-12-12T01:25:02.308Z,916.3
2016-12-12T01:25:31.532Z,916.3
2016-12-12T01:26:00.943Z,916.3
2016-12-12T01:26:28.848Z,916.32
2016-12-12T01:26:57.422Z,916.32
2016-12-12T01:27:25.989Z,916.31
2016-12-12T01:27:55.332Z,916.32
2016-12-12T01:28:24.112Z,916.27
2016-12-12T01:28:52.588Z,916.32
2016-12-12T01:29:21.102Z,916.32
2016-12-12T01:29:50.894Z,916.33
2016-12-12T01:30:19.108Z,916.28
2016-12-12T01:30:47.756Z,916.24
2016-12-12T01:31:16.253Z,916.27
2016-12-12T01:31:44.680Z,916.26
2016-12-12T01:32:14.375Z,916.28
2016-12-12T01:32:44.130Z,916.29
2016-12-12T01:33:12.658Z,916.28
2016-12-12T01:33:41.465Z,916.3
2016-12-12T01:34:10.572Z,916.26
2016-12-12T01:34:38.834Z,916.29
2016-12-12T01:35:07.270Z,916.26
2016-12-12T01:35:35.986Z,916.28
2016-12-12T01:36:06.117Z,916.26
2016-12-12T01:36:34.890Z,916.28
2016-12-12T01:37:03.329Z,916.29
2016-12-12T01:37:31.604Z,916.3
2016-12-12T01:38:00.056Z,916.32
2016-12-12T01:38:28.927Z,916.33
2016-12-12T01:38:57.101Z,916.38
2016-12-12T01:39:25.370Z,916.39
2016-12-12T01:39:53.661Z,916.39
2016-12-12T01:40:22.914Z,916.43
2016-12-12T01:40:51.941Z,916.45
2016-12-12T01:41:20.918Z,916.45
2016-12-12T01:41:50.073Z,916.45
2016-12-12T01:42:18.149Z,916.45
2016-12-12T01:42:46.324Z,916.48
2016-12-12T01:43:15.023Z,916.45
2016-12-12T01:43:44.690Z,916.47
2016-12-12T01:44:13.020Z,916.48
2016-12-12T01:44:41.533Z,916.44
2016-12-12T01:45:10.033Z,916.42
2016-12-12T01:45:40.731Z,916.45
2016-12-12T01:46:09.609Z,916.41
2016-12-12T01:46:38.976Z,916.39
2016-12-12T01:47:07.443Z,916.39
2016-12-12T01:47:35.933Z,916.36
2016-12-12T01:48:04.756Z,916.35
2016-12-12T01:48:32.904Z,916.31
2016-12-12T01:49:01.862Z,916.33
2016-12-12T01:49:30.299Z,916.31
2016-12-12T01:49:59.255Z,916.3
2016-12-12T01:50:28.798Z,916.3
2016-12-12T01:50:57.561Z,916.27
2016-12-12T01:51:25.612Z,916.27
2016-12-12T01:51:54.332Z,916.25
2016-12-12T01:52:22.510Z,916.25
2016-12-12T01:52:51.717Z,916.24
2016-12-12T01:53:20.300Z,916.22
2016-12-12T01:53:50.213Z,916.23
2016-12-12T01:54:18.574Z,916.22
2016-12-12T01:54:47.083Z,916.22
2016-12-12T01:55:16.763Z,916.2
2016-12-12T01:56:30.650Z,916.17
2016-12-12T01:56:59.122Z,916.12
2016-12-12T01:57:27.709Z,916.1
2016-12-12T01:57:56.862Z,916.07
2016-12-12T01:58:25.725Z,916.04
2016-12-12T01:58:55.487Z,916.01
2016-12-12T01:59:24.130Z,915.99
2016-12-12T01:59:53.029Z,915.97
2016-12-12T02:00:22.285Z,916.01
2016-12-12T02:00:51.594Z,915.99
2016-12-12T02:01:20.067Z,915.99
2016-12-12T02:01:48.668Z,915.99
2016-12-12T02:02:18.102Z,916.01
2016-12-12T02:02:46.592Z,915.97
2016-12-12T02:03:15.110Z,915.95
2016-12-12T02:03:44.053Z,916.01
2016-12-12T02:04:12.941Z,915.99
2016-12-12T02:04:41.522Z,915.98
2016-12-12T02:05:11.334Z,915.99
2016-12-12T02:05:39.538Z,915.98
2016-12-12T02:06:08.149Z,915.98
2016-12-12T02:06:38.731Z,915.98
2016-12-12T02:07:08.236Z,915.98
2016-12-12T02:07:36.569Z,915.94
2016-12-12T02:08:06.335Z,915.94
2016-12-12T02:08:34.983Z,915.94
2016-12-12T02:09:03.496Z,915.92
2016-12-12T02:09:33.469Z,915.91
2016-12-12T02:10:03.352Z,915.94
2016-12-12T02:10:33.097Z,915.92
2016-12-12T02:11:03.062Z,915.92
2016-12-12T02:11:31.396Z,915.94
2016-12-12T02:11:59.629Z,915.95
2016-12-12T02:12:29.467Z,915.92
2016-12-12T02:12:57.903Z,915.93
2016-12-12T02:13:26.116Z,915.9
2016-12-12T02:13:55.096Z,915.86
2016-12-12T02:14:24.068Z,915.86
2016-12-12T02:14:52.504Z,915.86
2016-12-12T02:15:21.387Z,915.87
2016-12-12T02:15:49.762Z,915.84
2016-12-12T02:16:18.442Z,915.84
2016-12-12T02:16:46.887Z,915.87
2016-12-12T02:17:15.099Z,915.88
2016-12-12T02:17:43.852Z,915.87
2016-12-12T02:18:12.771Z,915.86
2016-12-12T02:18:41.389Z,915.86
2016-12-12T02:19:10.022Z,915.87
2016-12-12T02:19:39.194Z,915.88
2016-12-12T02:20:07.425Z,915.84
2016-12-12T02:20:37.738Z,915.85
2016-12-12T02:21:07.152Z,915.88
2016-12-12T02:21:35.966Z,915.84
2016-12-12T02:22:06.476Z,915.81
2016-12-12T02:22:34.927Z,915.83
2016-12-12T02:23:04.304Z,915.86
2016-12-12T02:23:33.819Z,915.85
2016-12-12T02:24:02.113Z,915.84
2016-12-12T02:24:30.690Z,915.84
2016-12-12T02:24:59.263Z,915.83
2016-12-12T02:25:28.105Z,915.8
2016-12-12T02:25:58.205Z,915.82
2016-12-12T02:26:26.270Z,915.8
2016-12-12T02:26:55.427Z,915.81
2016-12-12T02:27:23.824Z,915.83
2016-12-12T02:27:52.426Z,915.77
2016-12-12T02:28:21.031Z,915.76
2016-12-12T02:28:49.429Z,915.75
2016-12-12T02:29:18.936Z,915.76
2016-12-12T02:29:47.295Z,915.77
2016-12-12T02:30:16.041Z,915.71
2016-12-12T02:30:44.912Z,915.71
2016-12-12T02:31:12.932Z,915.69
2016-12-12T02:31:41.970Z,915.73
2016-12-12T02:32:10.418Z,915.72
2016-12-12T02:32:38.893Z,915.71
2016-12-12T02:33:07.258Z,915.67
2016-12-12T02:33:38.134Z,915.68
2016-12-12T02:34:06.536Z,915.66
2016-12-12T02:34:34.749Z,915.65
2016-12-12T02:35:03.593Z,915.64
2016-12-12T02:35:31.832Z,915.64
2016-12-12T02:36:38.953Z,915.62
2016-12-12T02:37:07.902Z,915.58
2016-12-12T02:37:36.334Z,915.62
2016-12-12T02:38:06.638Z,915.61
2016-12-12T02:38:35.521Z,915.6
2016-12-12T02:39:03.851Z,915.61
2016-12-12T02:39:32.137Z,915.6
2016-12-12T02:40:00.895Z,915.59
2016-12-12T02:40:30.692Z,915.54
2016-12-12T02:40:59.183Z,915.55
2016-12-12T02:41:27.596Z,915.54
2016-12-12T02:41:56.700Z,915.5
2016-12-12T02:42:24.852Z,915.51
2016-12-12T02:42:54.203Z,915.35
2016-12-12T02:43:22.746Z,915.32
2016-12-12T02:43:50.882Z,915.29
2016-12-12T02:44:20.763Z,915.24
2016-12-12T02:44:49.917Z,915.24
2016-12-12T02:45:18.880Z,915.17
2016-12-12T02:45:47.844Z,915.21
2016-12-12T02:46:17.341Z,915.2
2016-12-12T02:46:46.911Z,915.21
2016-12-12T02:47:15.060Z,915.18
2016-12-12T02:47:43.847Z,915.17
2016-12-12T02:48:14.308Z,915.19
2016-12-12T02:48:42.536Z,915.17
2016-12-12T02:49:11.880Z,915.18
2016-12-12T02:49:41.238Z,915.14
2016-12-12T02:50:10.855Z,915.16
2016-12-12T02:50:39.658Z,915.07
2016-12-12T02:51:09.160Z,915.11
2016-12-12T02:51:38.913Z,915.09
2016-12-12T02:52:07.692Z,915.08
2016-12-12T02:52:36.355Z,915.08
2016-12-12T02:53:06.570Z,915.07
2016-12-12T02:53:35.620Z,915.04
2016-12-12T02:54:03.982Z,915.07
2016-12-12T02:54:32.457Z,915.04
2016-12-12T02:55:01.505Z,915.04
2016-12-12T02:55:31.244Z,914.98
2016-12-12T02:55:59.361Z,914.99
2016-12-12T02:56:27.957Z,914.98
2016-12-12T02:56:57.845Z,914.96
2016-12-12T02:57:27.303Z,914.98
2016-12-12T02:57:55.823Z,914.96
2016-12-12T02:58:25.670Z,914.98
2016-12-12T02:58:54.257Z,914.97
2016-12-12T02:59:22.511Z,914.96
2016-12-12T02:59:50.745Z,914.99
2016-12-12T03:00:20.003Z,915
2016-12-12T03:00:49.182Z,914.96
2016-12-12T03:01:17.695Z,915.01
2016-12-12T03:01:47.025Z,914.98
2016-12-12T03:02:16.007Z,915.02
2016-12-12T03:02:44.839Z,915.07
2016-12-12T03:03:14.260Z,915.05
2016-12-12T03:03:43.823Z,915.05
2016-12-12T03:04:11.909Z,915.04
2016-12-12T03:04:40.674Z,915.05
2016-12-12T03:05:09.209Z,915.05
2016-12-12T03:05:37.658Z,915.02
2016-12-12T03:06:05.745Z,915.02
2016-12-12T03:06:35.262Z,915.06
2016-12-12T03:07:04.326Z,915.01
2016-12-12T03:07:32.912Z,915.02
2016-12-12T03:08:02.638Z,915
2016-12-12T03:08:31.125Z,915.02
2016-12-12T03:08:59.765Z,915.01
2016-12-12T03:09:28.997Z,915
2016-12-12T03:09:57.337Z,914.98
2016-12-12T03:10:26.084Z,914.96
2016-12-12T03:10:55.207Z,914.99
2016-12-12T03:11:24.725Z,914.96
2016-12-12T03:11:54.335Z,914.96
2016-12-12T03:12:22.739Z,914.96
2016-12-12T03:12:50.851Z,914.94
2016-12-12T03:13:20.987Z,914.98
2016-12-12T03:13:50.287Z,914.92
2016-12-12T03:14:18.738Z,914.97
2016-12-12T03:14:47.798Z,914.96
2016-12-12T03:15:15.914Z,914.95
2016-12-12T03:15:44.371Z,914.93
2016-12-12T03:16:51.157Z,914.89
2016-12-12T03:17:19.315Z,914.88
2016-12-12T03:17:47.922Z,914.84
2016-12-12T03:18:17.168Z,914.85
2016-12-12T03:18:46.132Z,914.82
2016-12-12T03:19:14.692Z,914.85
2016-12-12T03:19:43.771Z,914.85
2016-12-12T03:20:13.328Z,914.83
2016-12-12T03:20:42.737Z,914.83
2016-12-12T03:21:11.202Z,914.81
2016-12-12T03:21:40.762Z,914.78
2016-12-12T03:22:08.774Z,914.8
2016-12-12T03:22:37.382Z,914.75
2016-12-12T03:23:05.790Z,914.69
2016-12-12T03:23:34.654Z,914.66
2016-12-12T03:24:05.003Z,914.65
2016-12-12T03:24:33.899Z,914.65
2016-12-12T03:25:02.326Z,914.62
2016-12-12T03:25:31.435Z,914.6
2016-12-12T03:25:59.752Z,914.51
2016-12-12T03:26:29.224Z,914.45
2016-12-12T03:26:59.039Z,914.46
2016-12-12T03:27:27.792Z,914.47
2016-12-12T03:27:56.273Z,914.44
2016-12-12T03:28:26.000Z,914.43
2016-12-12T03:28:55.743Z,914.45
2016-12-12T03:29:24.265Z,914.45
2016-12-12T03:29:52.442Z,914.45
2016-12-12T03:30:21.466Z,914.43
2016-12-12T03:30:50.810Z,914.44
2016-12-12T03:31:19.211Z,914.42
2016-12-12T03:31:48.533Z,914.4
2016-12-12T03:32:16.947Z,914.41
2016-12-12T03:32:46.426Z,914.39
2016-12-12T03:33:14.935Z,914.36
2016-12-12T03:33:44.392Z,914.35
2016-12-12T03:34:13.794Z,914.31
2016-12-12T03:34:42.064Z,914.31
2016-12-12T03:35:10.494Z,914.32
2016-12-12T03:35:39.424Z,914.31
2016-12-12T03:36:07.937Z,914.3
2016-12-12T03:36:35.954Z,914.33
2016-12-12T03:37:04.415Z,914.32
2016-12-12T03:37:33.334Z,914.33
2016-12-12T03:38:01.409Z,914.31
2016-12-12T03:38:29.498Z,914.31
2016-12-12T03:38:59.905Z,914.29
2016-12-12T03:39:28.334Z,914.27
2016-12-12T03:39:57.811Z,914.29
2016-12-12T03:40:26.732Z,914.28
2016-12-12T03:40:55.258Z,914.22
2016-12-12T03:41:23.933Z,914.21
2016-12-12T03:41:52.384Z,914.21
2016-12-12T03:42:20.976Z,914.28
2016-12-12T03:42:50.518Z,914.27
2016-12-12T03:43:18.974Z,914.26
2016-12-12T03:43:47.413Z,914.27
2016-12-12T03:44:15.862Z,914.26
2016-12-12T03:44:44.245Z,914.27
2016-12-12T03:45:12.591Z,914.29
2016-12-12T03:45:40.744Z,914.29
2016-12-12T03:46:10.709Z,914.28
2016-12-12T03:46:39.102Z,914.25
2016-12-12T03:47:07.462Z,914.24
2016-12-12T03:47:35.974Z,914.26
2016-12-12T03:48:04.403Z,914.26
2016-12-12T03:48:32.904Z,914.28
2016-12-12T03:49:01.406Z,914.27
2016-12-12T03:49:29.755Z,914.24
2016-12-12T03:50:00.824Z,914.25
2016-12-12T03:50:29.563Z,914.25
2016-12-12T03:50:59.693Z,914.25
2016-12-12T03:51:29.051Z,914.26
2016-12-12T03:51:59.477Z,914.26
2016-12-12T03:52:28.534Z,914.22
2016-12-12T03:52:57.586Z,914.28
2016-12-12T03:53:26.707Z,914.25
2016-12-12T03:53:55.077Z,914.25
2016-12-12T03:54:24.389Z,914.25
2016-12-12T03:54:52.800Z,914.24
2016-12-12T03:55:21.472Z,914.24
2016-12-12T03:55:49.663Z,914.21
2016-12-12T03:56:56.447Z,914.2
2016-12-12T03:57:24.647Z,914.19
2016-12-12T03:57:52.781Z,914.16
2016-12-12T03:58:21.709Z,914.2
2016-12-12T03:58:50.646Z,914.17
2016-12-12T03:59:18.618Z,914.2
2016-12-12T03:59:47.743Z,914.17
2016-12-12T04:00:16.665Z,914.17
2016-12-12T04:00:45.108Z,914.16
2016-12-12T04:01:13.476Z,914.15
2016-12-12T04:01:41.643Z,914.15
2016-12-12T04:02:11.061Z,914.18
2016-12-12T04:02:39.661Z,914.16
2016-12-12T04:03:08.871Z,914.15
2016-12-12T04:03:38.790Z,914.17
2016-12-12T04:04:07.128Z,914.21
2016-12-12T04:04:35.317Z,914.2
2016-12-12T04:05:04.438Z,914.19
2016-12-12T04:05:33.970Z,914.18
2016-12-12T04:06:02.540Z,914.2
2016-12-12T04:06:32.714Z,914.18
2016-12-12T04:07:02.430Z,914.18
